Time;durP1;ratioP1;P1;durP2;ratioP2;P2;SDS_P1;SDS_P2;PMS_P1;PMS_P2;Temp;Humidity;BMP_temperature;BMP_pressure;BME280_temperature;BME280_humidity;BME280_pressure;Samples;Min_cycle;Max_cycle;Signal;HPM_P1;HPM_P2
2022/01/06 00:01:03;;;;;;;0.20;0.10;;;;;;;6.04;100.00;99989.47;5056548;23;20494;-76
2022/01/06 00:03:31;;;;;;;0.20;0.13;;;;;;;6.06;99.84;99989.47;5052675;28;20443;-76
2022/01/06 00:06:03;;;;;;;0.20;0.20;;;;;;;6.11;99.41;100001.66;5053499;28;20450;-76
2022/01/06 00:08:30;;;;;;;0.20;0.10;;;;;;;6.29;98.98;99994.34;5036727;28;20529;-76
2022/01/06 00:10:56;;;;;;;0.30;0.20;;;;;;;6.12;99.76;100011.31;5029535;28;20455;-76
2022/01/06 00:13:32;;;;;;;0.30;0.10;;;;;;;6.01;100.00;100009.72;5033591;28;20459;-76
2022/01/06 00:16:10;;;;;;;0.30;0.20;;;;;;;6.02;100.00;100009.72;5032238;28;20447;-76
2022/01/06 00:23:55;;;;;;;0.20;0.20;;;;;;;6.18;100.00;100002.47;5033710;28;20439;-76
2022/01/06 00:26:22;;;;;;;0.20;0.20;;;;;;;6.02;100.00;99999.16;5033420;28;20447;-76
2022/01/06 00:28:48;;;;;;;0.20;0.20;;;;;;;5.92;100.00;100005.50;5032997;28;20467;-75
2022/01/06 00:31:15;;;;;;;0.20;0.17;;;;;;;5.93;100.00;99992.28;5033122;28;20459;-76
2022/01/06 00:33:42;;;;;;;0.20;0.10;;;;;;;5.79;100.00;99998.59;5032857;28;20458;-76
2022/01/06 00:36:08;;;;;;;0.20;0.10;;;;;;;5.89;100.00;100009.00;5031238;28;20451;-75
2022/01/06 00:38:35;;;;;;;0.20;0.10;;;;;;;5.86;100.00;100005.53;5033094;28;20585;-75
2022/01/06 00:41:02;;;;;;;0.20;0.10;;;;;;;5.83;100.00;100009.06;5033604;28;20462;-76
2022/01/06 00:43:29;;;;;;;0.20;0.20;;;;;;;5.99;100.00;100027.34;5031913;28;20447;-76
2022/01/06 00:45:56;;;;;;;0.20;0.17;;;;;;;5.98;100.00;100013.28;5032401;28;20479;-75
2022/01/06 00:48:22;;;;;;;0.20;0.10;;;;;;;5.83;100.00;100024.91;5015918;28;20556;-76
2022/01/06 00:50:49;;;;;;;0.20;0.10;;;;;;;5.81;100.00;100025.81;5023379;28;20909;-76
2022/01/06 00:53:16;;;;;;;0.20;0.20;;;;;;;5.98;100.00;100030.91;5032893;28;20451;-75
2022/01/06 00:55:42;;;;;;;0.20;0.20;;;;;;;5.95;100.00;100021.25;5033104;28;20447;-76
2022/01/06 00:58:09;;;;;;;0.20;0.20;;;;;;;5.95;100.00;100023.91;5031947;28;20529;-76
2022/01/06 01:00:39;;;;;;;0.20;0.20;;;;;;;5.94;100.00;100027.44;5033329;28;20456;-76
2022/01/06 01:03:11;;;;;;;0.20;0.10;;;;;;;6.02;100.00;100033.44;5033289;28;20455;-76
2022/01/06 01:05:41;;;;;;;0.20;0.10;;;;;;;6.03;100.00;100032.59;5032262;28;20447;-76
2022/01/06 01:08:07;;;;;;;0.20;0.10;;;;;;;6.00;100.00;100031.75;5025676;28;20472;-76
2022/01/06 01:10:34;;;;;;;0.20;0.10;;;;;;;5.92;100.00;100034.50;5020314;28;20452;-76
2022/01/06 01:13:02;;;;;;;0.20;0.20;;;;;;;6.02;100.00;100036.09;5019816;28;20439;-76
2022/01/06 01:15:31;;;;;;;0.20;0.10;;;;;;;5.89;100.00;100032.75;5032870;28;20550;-75
2022/01/06 01:18:05;;;;;;;0.20;0.10;;;;;;;5.83;100.00;100038.09;5015163;28;20489;-76
2022/01/06 01:20:33;;;;;;;0.20;0.20;;;;;;;5.83;100.00;100042.50;5029602;28;20525;-76
2022/01/06 01:22:59;;;;;;;0.20;0.10;;;;;;;5.80;100.00;100046.06;5032879;28;20510;-76
2022/01/06 01:25:26;;;;;;;0.20;0.10;;;;;;;5.76;100.00;100046.13;5032374;28;21334;-76
2022/01/06 01:27:55;;;;;;;0.20;0.10;;;;;;;5.83;100.00;100058.31;5032936;28;20472;-76
2022/01/06 01:30:29;;;;;;;0.20;0.20;;;;;;;5.91;100.00;100053.84;5028037;28;20453;-76
2022/01/06 01:32:58;;;;;;;0.20;0.20;;;;;;;5.88;100.00;100053.84;5014249;28;20518;-76
2022/01/06 01:35:31;;;;;;;0.20;0.10;;;;;;;6.17;100.00;100066.69;5026884;28;20452;-77
2022/01/06 01:37:59;;;;;;;0.20;0.10;;;;;;;6.00;100.00;100068.66;5024536;28;20988;-76
2022/01/06 01:40:26;;;;;;;0.20;0.10;;;;;;;5.89;100.00;100076.69;5032862;28;20456;-76
2022/01/06 01:42:52;;;;;;;0.20;0.17;;;;;;;5.85;100.00;100080.28;5019371;28;20499;-76
2022/01/06 01:45:24;;;;;;;0.20;0.10;;;;;;;5.74;100.00;100085.66;5032836;28;20452;-76
2022/01/06 01:47:50;;;;;;;0.20;0.20;;;;;;;5.76;100.00;100096.22;5026732;28;20518;-76
2022/01/06 01:50:18;;;;;;;0.20;0.10;;;;;;;5.84;100.00;100097.00;5005769;28;20448;-76
2022/01/06 01:52:51;;;;;;;0.20;0.10;;;;;;;6.00;100.00;100100.31;5032162;28;20451;-76
2022/01/06 01:55:21;;;;;;;0.20;0.10;;;;;;;6.13;100.00;100096.63;5027946;28;20865;-77
2022/01/06 01:57:49;;;;;;;0.20;0.10;;;;;;;6.29;100.00;100102.56;5017120;28;20523;-76
2022/01/06 02:00:20;;;;;;;0.20;0.20;;;;;;;6.10;100.00;100109.88;5027828;28;20526;-77
2022/01/06 02:02:48;;;;;;;0.20;0.10;;;;;;;6.42;100.00;100106.78;5033802;28;20452;-76
2022/01/06 02:05:15;;;;;;;0.20;0.10;;;;;;;6.19;100.00;100110.63;5025990;28;20452;-76
2022/01/06 02:07:41;;;;;;;0.20;0.20;;;;;;;6.05;100.00;100109.06;5032450;28;20464;-76
2022/01/06 02:10:10;;;;;;;0.20;0.10;;;;;;;6.21;100.00;100107.97;5027827;28;20471;-76
2022/01/06 02:12:39;;;;;;;0.20;0.10;;;;;;;5.87;100.00;100118.03;5023330;28;20493;-76
2022/01/06 02:15:08;;;;;;;0.20;0.20;;;;;;;5.92;100.00;100109.22;5034826;28;20452;-76
2022/01/06 02:17:34;;;;;;;0.20;0.10;;;;;;;5.93;100.00;100113.63;5026233;28;20519;-76
2022/01/06 02:20:09;;;;;;;0.20;0.10;;;;;;;5.95;100.00;100105.69;5036513;28;20913;-76
2022/01/06 02:22:36;;;;;;;0.20;0.20;;;;;;;5.96;100.00;100115.34;5003366;28;20503;-76
2022/01/06 02:25:13;;;;;;;0.20;0.20;;;;;;;5.99;100.00;100122.31;5029147;28;20447;-76
2022/01/06 02:27:40;;;;;;;0.20;0.10;;;;;;;5.96;100.00;100115.34;5024358;28;20816;-76
2022/01/06 02:30:08;;;;;;;0.20;0.10;;;;;;;5.75;100.00;100107.63;5032389;28;20443;-76
2022/01/06 02:32:36;;;;;;;0.40;0.40;;;;;;;5.83;100.00;100111.94;5023393;28;20456;-76
2022/01/06 02:35:08;;;;;;;0.20;0.20;;;;;;;5.65;100.00;100105.13;5022341;28;20890;-76
2022/01/06 02:37:35;;;;;;;0.20;0.10;;;;;;;5.86;100.00;100113.66;5024653;28;20500;-76
2022/01/06 02:40:07;;;;;;;0.20;0.10;;;;;;;5.65;100.00;100117.44;5032623;28;20525;-76
2022/01/06 02:42:34;;;;;;;0.20;0.20;;;;;;;5.79;100.00;100118.16;5023871;28;20444;-76
2022/01/06 02:45:01;;;;;;;0.20;0.10;;;;;;;5.63;100.00;100121.88;5006549;28;20456;-76
2022/01/06 02:47:28;;;;;;;0.20;0.20;;;;;;;5.45;100.00;100119.41;5040021;28;20479;-76
2022/01/06 02:49:54;;;;;;;0.20;0.10;;;;;;;5.42;100.00;100122.09;5035643;28;20443;-76
2022/01/06 02:52:21;;;;;;;0.20;0.20;;;;;;;5.64;100.00;100127.13;5036136;28;20502;-76
2022/01/06 02:54:48;;;;;;;0.20;0.10;;;;;;;5.60;100.00;100122.75;5034425;28;20463;-76
2022/01/06 02:57:14;;;;;;;0.20;0.10;;;;;;;5.68;100.00;100125.31;5035286;28;20525;-76
2022/01/06 02:59:41;;;;;;;0.20;0.10;;;;;;;5.74;100.00;100134.91;5034161;28;20499;-76
2022/01/06 03:02:08;;;;;;;0.20;0.10;;;;;;;5.65;100.00;100138.53;5034296;28;20513;-76
2022/01/06 03:04:35;;;;;;;0.20;0.10;;;;;;;5.63;100.00;100125.38;5033702;28;20447;-76
2022/01/06 03:07:03;;;;;;;0.20;0.10;;;;;;;5.49;100.00;100143.09;5034900;28;20472;-76
2022/01/06 03:09:38;;;;;;;0.20;0.10;;;;;;;5.48;100.00;100137.81;5027729;28;20449;-76
2022/01/06 03:12:20;;;;;;;0.20;0.10;;;;;;;5.53;100.00;100149.22;5028435;28;20443;-76
2022/01/06 03:14:47;;;;;;;0.20;0.10;;;;;;;5.56;100.00;100157.94;5034869;28;20523;-76
2022/01/06 03:17:13;;;;;;;0.20;0.20;;;;;;;5.37;100.00;100156.41;5025823;28;20527;-76
2022/01/06 03:19:40;;;;;;;0.20;0.10;;;;;;;5.43;100.00;100163.38;5034805;28;20495;-76
2022/01/06 03:22:08;;;;;;;0.20;0.10;;;;;;;5.59;100.00;100167.59;5035572;28;20478;-76
2022/01/06 03:24:34;;;;;;;0.20;0.10;;;;;;;5.65;100.00;100160.50;5034767;28;20514;-76
2022/01/06 03:27:02;;;;;;;0.20;0.10;;;;;;;5.57;100.00;100167.59;5033127;28;20915;-76
2022/01/06 03:29:28;;;;;;;0.20;0.10;;;;;;;5.47;100.00;100160.66;5023485;28;20457;-76
2022/01/06 03:31:55;;;;;;;0.20;0.10;;;;;;;5.38;100.00;100170.44;5010989;28;20495;-76
2022/01/06 03:34:22;;;;;;;0.20;0.10;;;;;;;5.32;100.00;100168.72;5023270;28;20455;-76
2022/01/06 03:36:48;;;;;;;0.20;0.10;;;;;;;5.46;100.00;100166.84;5032864;28;20830;-76
2022/01/06 03:39:15;;;;;;;0.20;0.10;;;;;;;5.41;100.00;100173.91;5024855;28;20547;-76
2022/01/06 03:41:41;;;;;;;0.20;0.20;;;;;;;5.29;100.00;100180.16;5030506;28;20451;-76
2022/01/06 03:44:08;;;;;;;0.20;0.10;;;;;;;5.44;100.00;100189.69;5034332;28;20972;-77
2022/01/06 03:46:35;;;;;;;0.20;0.20;;;;;;;5.46;100.00;100192.31;5029589;28;20502;-76
2022/01/06 03:49:02;;;;;;;0.20;0.20;;;;;;;5.36;100.00;100194.19;5023128;28;20444;-76
2022/01/06 03:51:28;;;;;;;0.20;0.10;;;;;;;5.45;100.00;100201.13;5030506;28;20448;-76
2022/01/06 03:53:55;;;;;;;0.20;0.10;;;;;;;5.44;100.00;100208.16;5024160;28;20493;-76
2022/01/06 03:56:22;;;;;;;0.20;0.20;;;;;;;5.38;100.00;100208.22;5019549;28;20861;-76
2022/01/06 03:58:49;;;;;;;0.20;0.10;;;;;;;5.34;100.00;100220.56;5033544;28;21007;-76
2022/01/06 04:01:16;;;;;;;0.20;0.10;;;;;;;5.30;100.00;100225.84;5029500;28;20472;-76
2022/01/06 04:03:46;;;;;;;0.20;0.13;;;;;;;5.30;100.00;100218.81;5013935;28;20455;-76
2022/01/06 04:06:12;;;;;;;0.20;0.10;;;;;;;5.33;100.00;100217.91;5031745;28;20443;-76
2022/01/06 04:08:39;;;;;;;0.20;0.20;;;;;;;5.32;100.00;100205.63;5021277;28;20471;-77
2022/01/06 04:11:11;;;;;;;0.20;0.20;;;;;;;5.20;100.00;100214.50;5009479;28;20961;-76
2022/01/06 04:13:38;;;;;;;0.20;0.10;;;;;;;5.25;100.00;100217.13;5033624;28;20510;-76
2022/01/06 04:16:08;;;;;;;0.20;0.10;;;;;;;5.19;100.00;100225.06;5034296;28;20522;-76
2022/01/06 04:18:36;;;;;;;0.20;0.10;;;;;;;5.22;100.00;100228.56;5028258;28;20492;-76
2022/01/06 04:21:04;;;;;;;0.20;0.10;;;;;;;5.23;100.00;100232.06;5005728;28;20515;-76
2022/01/06 04:23:30;;;;;;;0.20;0.10;;;;;;;5.23;100.00;100226.78;5020817;28;20460;-76
2022/01/06 04:25:57;;;;;;;0.20;0.10;;;;;;;5.29;100.00;100229.38;5020905;28;20502;-76
2022/01/06 04:28:23;;;;;;;0.20;0.10;;;;;;;5.26;100.00;100240.81;5033126;28;20976;-77
2022/01/06 04:30:51;;;;;;;0.20;0.10;;;;;;;5.25;100.00;100235.56;5024430;28;20453;-76
2022/01/06 04:33:18;;;;;;;0.20;0.17;;;;;;;5.31;100.00;100235.50;5026598;28;20879;-76
2022/01/06 04:35:44;;;;;;;0.20;0.10;;;;;;;5.19;100.00;100232.94;5033097;28;20497;-76
2022/01/06 04:38:11;;;;;;;0.20;0.20;;;;;;;5.24;100.00;100241.72;5017784;28;20496;-77
2022/01/06 04:40:38;;;;;;;0.20;0.10;;;;;;;5.39;100.00;100241.59;5000476;28;20445;-76
2022/01/06 04:43:06;;;;;;;2.93;1.33;;;;;;;5.27;100.00;100247.84;5026697;28;20452;-76
2022/01/06 04:45:32;;;;;;;0.20;0.17;;;;;;;5.20;100.00;100246.13;5019740;28;20506;-76
2022/01/06 04:47:59;;;;;;;0.20;0.10;;;;;;;5.20;100.00;100250.50;5030305;28;20540;-76
2022/01/06 04:50:26;;;;;;;0.20;0.10;;;;;;;5.07;100.00;100255.00;5024669;28;20448;-76
2022/01/06 04:52:52;;;;;;;0.20;0.10;;;;;;;5.09;100.00;100262.91;5026326;28;20452;-76
2022/01/06 04:55:19;;;;;;;0.20;0.10;;;;;;;5.02;100.00;100267.31;5020455;28;20988;-76
2022/01/06 04:57:46;;;;;;;0.20;0.10;;;;;;;5.12;100.00;100269.03;5031583;28;20472;-76
2022/01/06 05:00:13;;;;;;;0.20;0.13;;;;;;;5.09;100.00;100269.06;5022360;28;20457;-76
2022/01/06 05:02:39;;;;;;;0.20;0.20;;;;;;;5.10;100.00;100281.34;5027325;28;20999;-76
2022/01/06 05:05:07;;;;;;;0.20;0.10;;;;;;;5.02;100.00;100276.09;5033031;28;20888;-76
2022/01/06 05:07:33;;;;;;;0.20;0.20;;;;;;;5.00;100.00;100274.38;5019588;28;20892;-76
2022/01/06 05:10:00;;;;;;;0.20;0.10;;;;;;;4.91;100.00;100272.66;5031095;28;20448;-76
2022/01/06 05:12:26;;;;;;;0.20;0.10;;;;;;;4.93;100.00;100270.00;5028030;28;20447;-77
2022/01/06 05:14:53;;;;;;;0.20;0.10;;;;;;;4.92;100.00;100279.66;5022607;28;20456;-77
2022/01/06 05:17:20;;;;;;;0.20;0.20;;;;;;;5.09;100.00;100284.84;5023352;28;20537;-76
2022/01/06 05:19:46;;;;;;;0.20;0.10;;;;;;;5.36;100.00;100286.44;5032482;28;20988;-76
2022/01/06 05:22:13;;;;;;;0.20;0.20;;;;;;;5.11;100.00;100291.00;5011971;28;20454;-76
2022/01/06 05:24:40;;;;;;;0.20;0.10;;;;;;;5.14;100.00;100285.69;5003399;28;20511;-77
2022/01/06 05:27:10;;;;;;;0.20;0.10;;;;;;;5.05;100.00;100294.50;4998874;28;20543;-76
2022/01/06 05:29:38;;;;;;;0.20;0.10;;;;;;;5.09;100.00;100302.44;5001684;28;20441;-76
2022/01/06 05:32:05;;;;;;;0.20;0.10;;;;;;;5.49;100.00;100297.75;5014711;28;20444;-77
2022/01/06 05:34:31;;;;;;;0.20;0.10;;;;;;;5.40;100.00;100301.31;5031383;28;20501;-76
2022/01/06 05:36:58;;;;;;;0.20;0.10;;;;;;;5.58;100.00;100295.91;5030961;28;20807;-76
2022/01/06 05:39:25;;;;;;;0.20;0.10;;;;;;;5.66;100.00;100303.75;5020818;28;20600;-76
2022/01/06 05:41:51;;;;;;;0.20;0.10;;;;;;;5.35;100.00;100306.63;5024402;28;21012;-76
2022/01/06 05:44:18;;;;;;;0.20;0.10;;;;;;;5.26;100.00;100308.44;5022851;28;20824;-77
2022/01/06 05:46:47;;;;;;;0.20;0.10;;;;;;;5.18;100.00;100305.84;5030659;28;20476;-76
2022/01/06 05:49:15;;;;;;;0.20;0.10;;;;;;;5.14;100.00;100312.03;5032524;28;20448;-76
2022/01/06 05:51:41;;;;;;;0.20;0.10;;;;;;;5.09;100.00;100307.69;5031365;28;20444;-77
2022/01/06 05:54:08;;;;;;;0.20;0.10;;;;;;;5.04;100.00;100315.59;5020022;28;20452;-76
2022/01/06 05:56:35;;;;;;;0.20;0.10;;;;;;;5.02;100.00;100323.53;5018548;28;20447;-76
2022/01/06 05:59:02;;;;;;;0.20;0.20;;;;;;;4.94;100.00;100327.97;5031719;28;20545;-76
2022/01/06 06:01:29;;;;;;;0.20;0.20;;;;;;;5.11;100.00;100332.25;5032359;28;20452;-77
2022/01/06 06:03:56;;;;;;;0.20;0.20;;;;;;;5.09;100.00;100332.28;5031309;28;20505;-76
2022/01/06 06:06:23;;;;;;;0.83;0.73;;;;;;;5.09;100.00;100332.28;5032173;28;20521;-76
2022/01/06 06:08:49;;;;;;;0.20;0.10;;;;;;;5.09;100.00;100331.41;5030431;28;20526;-76
2022/01/06 06:11:16;;;;;;;0.20;0.10;;;;;;;5.09;100.00;100326.13;5030536;28;20452;-76
2022/01/06 06:13:43;;;;;;;0.20;0.10;;;;;;;4.98;100.00;100337.59;5018165;28;20452;-76
2022/01/06 06:16:09;;;;;;;0.20;0.10;;;;;;;4.86;100.00;100339.41;5016764;28;20519;-76
2022/01/06 06:18:36;;;;;;;0.20;0.20;;;;;;;4.79;100.00;100332.41;5025948;28;20957;-76
2022/01/06 06:21:03;;;;;;;0.20;0.10;;;;;;;4.72;100.00;100340.34;5024796;28;20510;-76
2022/01/06 06:23:29;;;;;;;0.20;0.10;;;;;;;4.86;100.00;100328.88;4999722;28;20515;-76
2022/01/06 06:25:56;;;;;;;0.20;0.20;;;;;;;4.86;100.00;100345.56;5030496;28;21011;-76
2022/01/06 06:28:22;;;;;;;0.20;0.20;;;;;;;4.57;100.00;100345.69;5017934;28;20518;-76
2022/01/06 06:30:49;;;;;;;0.20;0.10;;;;;;;4.65;100.00;100350.91;5022816;28;20507;-76
2022/01/06 06:33:16;;;;;;;0.20;0.10;;;;;;;4.64;100.00;100346.50;5026493;28;20952;-76
2022/01/06 06:35:42;;;;;;;0.20;0.20;;;;;;;4.61;100.00;100357.94;5022987;28;20447;-76
2022/01/06 06:38:09;;;;;;;0.20;0.10;;;;;;;4.58;100.00;100360.59;5033945;28;20475;-76
2022/01/06 06:40:36;;;;;;;0.20;0.20;;;;;;;4.45;100.00;100367.63;5034908;28;20529;-76
2022/01/06 06:43:02;;;;;;;0.20;0.13;;;;;;;4.43;100.00;100366.78;5033636;28;20448;-76
2022/01/06 06:45:29;;;;;;;0.20;0.20;;;;;;;4.30;100.00;100362.41;5035057;28;20816;-76
2022/01/06 06:47:56;;;;;;;0.20;0.10;;;;;;;4.33;100.00;100372.94;5028244;28;20903;-76
2022/01/06 06:50:23;;;;;;;0.20;0.13;;;;;;;4.23;100.00;100373.81;5033756;28;20440;-76
2022/01/06 06:52:49;;;;;;;0.20;0.10;;;;;;;4.15;100.00;100373.84;5033022;28;20836;-76
2022/01/06 06:55:16;;;;;;;0.20;0.20;;;;;;;4.16;100.00;100382.59;5034951;28;20447;-76
2022/01/06 06:57:43;;;;;;;0.20;0.17;;;;;;;4.14;100.00;100384.38;5034710;28;20463;-75
2022/01/06 07:00:10;;;;;;;0.20;0.10;;;;;;;4.08;100.00;100392.25;5034535;28;20573;-75
2022/01/06 07:02:37;;;;;;;0.53;0.53;;;;;;;3.90;100.00;100395.75;5034824;28;20509;-75
2022/01/06 07:05:05;;;;;;;0.20;0.10;;;;;;;3.72;100.00;100390.50;5033996;28;20448;-76
2022/01/06 07:07:32;;;;;;;0.20;0.10;;;;;;;3.71;100.00;100397.53;5028575;28;20467;-76
2022/01/06 07:09:58;;;;;;;0.20;0.10;;;;;;;3.50;100.00;100400.97;5033913;28;20929;-75
2022/01/06 07:12:25;;;;;;;0.20;0.10;;;;;;;3.17;100.00;100424.56;5021461;28;20455;-76
2022/01/06 07:14:52;;;;;;;0.20;0.10;;;;;;;3.24;100.00;100423.69;5034486;28;20451;-76
2022/01/06 07:17:18;;;;;;;0.20;0.10;;;;;;;3.05;100.00;100422.75;5025146;28;20471;-75
2022/01/06 07:19:45;;;;;;;0.20;0.10;;;;;;;3.28;100.00;100434.19;5033991;28;20494;-77
2022/01/06 07:22:12;;;;;;;0.20;0.10;;;;;;;3.21;100.00;100440.31;5019654;28;20518;-76
2022/01/06 07:24:39;;;;;;;0.20;0.10;;;;;;;3.34;100.00;100445.59;5033352;28;20436;-76
2022/01/06 07:27:06;;;;;;;0.20;0.17;;;;;;;3.25;100.00;100431.56;5030696;28;20461;-76
2022/01/06 07:29:33;;;;;;;0.20;0.10;;;;;;;3.24;100.00;100439.44;5034208;28;20459;-76
2022/01/06 07:32:00;;;;;;;0.20;0.10;;;;;;;2.94;100.00;100445.44;5032083;28;20941;-76
2022/01/06 07:34:26;;;;;;;0.20;0.10;;;;;;;2.90;100.00;100443.69;5027397;28;20488;-76
2022/01/06 07:36:53;;;;;;;0.20;0.10;;;;;;;2.84;100.00;100451.50;5033758;28;20514;-75
2022/01/06 07:39:20;;;;;;;0.20;0.10;;;;;;;2.93;100.00;100457.69;5033838;28;20483;-76
2022/01/06 07:41:47;;;;;;;0.20;0.10;;;;;;;2.88;100.00;100461.19;5029643;28;20453;-76
2022/01/06 07:44:13;;;;;;;0.20;0.20;;;;;;;2.80;100.00;100463.75;5024980;28;20807;-76
2022/01/06 07:46:42;;;;;;;0.20;0.10;;;;;;;2.85;100.00;100467.28;5030619;28;20530;-77
2022/01/06 07:49:09;;;;;;;1.17;1.13;;;;;;;2.96;100.00;100459.44;5025859;28;20438;-76
2022/01/06 07:51:35;;;;;;;0.20;0.10;;;;;;;3.28;100.00;100468.34;5028619;28;20452;-75
2022/01/06 07:54:02;;;;;;;0.20;0.10;;;;;;;3.38;100.00;100469.25;5021870;28;20445;-75
2022/01/06 07:56:29;;;;;;;0.20;0.10;;;;;;;3.66;100.00;100471.97;5033253;28;20452;-75
2022/01/06 07:58:56;;;;;;;0.20;0.10;;;;;;;3.52;100.00;100477.19;5027424;28;20989;-76
2022/01/06 08:01:23;;;;;;;0.20;0.13;;;;;;;3.53;100.00;100484.19;5020241;28;20819;-76
2022/01/06 08:03:51;;;;;;;0.20;0.10;;;;;;;3.48;100.00;100478.94;5033100;28;20451;-76
2022/01/06 08:06:18;;;;;;;0.20;0.20;;;;;;;3.53;100.00;100492.94;5033413;28;20509;-76
2022/01/06 08:08:45;;;;;;;0.20;0.20;;;;;;;3.58;100.00;100481.59;5032608;28;20460;-76
2022/01/06 08:11:12;;;;;;;0.20;0.10;;;;;;;3.65;100.00;100485.97;5029391;28;20502;-76
2022/01/06 08:13:39;;;;;;;0.20;0.10;;;;;;;3.69;100.00;100490.38;5030857;28;20449;-75
2022/01/06 08:16:06;;;;;;;0.20;0.10;;;;;;;3.86;100.00;100493.94;5007453;28;20443;-76
2022/01/06 08:18:33;;;;;;;0.20;0.10;;;;;;;4.02;100.00;100497.47;5018707;28;20472;-75
2022/01/06 08:21:00;;;;;;;0.20;0.10;;;;;;;4.22;100.00;100503.59;5007389;28;20487;-75
2022/01/06 08:23:26;;;;;;;0.20;0.10;;;;;;;4.42;100.00;100511.50;5031594;28;20436;-75
2022/01/06 08:25:53;;;;;;;0.20;0.10;;;;;;;4.45;100.00;100516.78;5013589;28;20816;-76
2022/01/06 08:28:20;;;;;;;0.20;0.10;;;;;;;4.55;100.00;100521.16;5026829;28;20526;-75
2022/01/06 08:30:47;;;;;;;0.20;0.10;;;;;;;4.65;100.00;100512.34;5030770;28;20501;-77
2022/01/06 08:33:15;;;;;;;0.20;0.10;;;;;;;4.68;100.00;100519.41;5031411;28;20493;-75
2022/01/06 08:35:43;;;;;;;0.20;0.10;;;;;;;4.74;100.00;100524.66;5023794;28;20443;-76
2022/01/06 08:38:14;;;;;;;0.20;0.10;;;;;;;4.81;100.00;100536.94;5023134;28;20830;-75
2022/01/06 08:40:41;;;;;;;0.20;0.10;;;;;;;4.81;100.00;100536.06;5032615;28;20479;-75
2022/01/06 08:43:07;;;;;;;0.20;0.10;;;;;;;5.11;100.00;100535.13;5030458;28;20866;-75
2022/01/06 08:45:34;;;;;;;0.20;0.10;;;;;;;4.97;100.00;100541.28;5025180;28;20448;-75
2022/01/06 08:48:01;;;;;;;0.20;0.17;;;;;;;4.98;100.00;100531.63;5020909;28;20460;-75
2022/01/06 08:50:29;;;;;;;0.20;0.10;;;;;;;5.11;100.00;100543.91;5025664;28;20436;-75
2022/01/06 08:52:56;;;;;;;0.20;0.20;;;;;;;5.31;100.00;100546.47;5032835;28;20522;-77
2022/01/06 08:55:26;;;;;;;0.20;0.10;;;;;;;5.27;100.00;100550.00;5024841;28;20850;-75
2022/01/06 08:57:54;;;;;;;0.20;0.20;;;;;;;5.21;100.00;100550.03;5017131;28;20965;-75
2022/01/06 09:00:20;;;;;;;0.20;0.10;;;;;;;5.12;100.00;100550.94;5031009;28;20596;-75
2022/01/06 09:02:47;;;;;;;0.20;0.20;;;;;;;5.34;100.00;100552.63;5017604;28;20468;-74
2022/01/06 09:05:14;;;;;;;0.20;0.20;;;;;;;5.27;100.00;100553.53;5021263;28;20949;-75
2022/01/06 09:07:41;;;;;;;0.20;0.10;;;;;;;5.23;100.00;100551.78;5023233;28;20522;-74
2022/01/06 09:10:08;;;;;;;0.20;0.10;;;;;;;5.25;100.00;100554.41;5015415;28;20448;-75
2022/01/06 09:12:35;;;;;;;0.20;0.20;;;;;;;5.20;100.00;100557.03;5018142;28;21000;-74
2022/01/06 09:15:03;;;;;;;0.20;0.10;;;;;;;5.21;100.00;100555.31;5026210;28;20963;-74
2022/01/06 09:17:35;;;;;;;0.20;0.20;;;;;;;5.25;100.00;100563.19;5018501;28;20486;-75
2022/01/06 09:20:06;;;;;;;0.20;0.10;;;;;;;5.24;100.00;100564.06;5020461;28;20512;-75
2022/01/06 09:22:38;;;;;;;0.20;0.20;;;;;;;5.33;100.00;100560.50;5024890;28;20487;-75
2022/01/06 09:25:05;;;;;;;0.20;0.10;;;;;;;5.48;100.00;100567.50;5023294;28;20881;-75
2022/01/06 09:27:31;;;;;;;0.20;0.20;;;;;;;5.58;100.00;100569.22;5023237;28;20483;-75
2022/01/06 09:29:59;;;;;;;0.20;0.10;;;;;;;5.65;100.00;100565.69;5022760;28;20495;-75
2022/01/06 09:32:26;;;;;;;0.20;0.20;;;;;;;6.06;100.00;100575.19;5020884;28;20497;-74
2022/01/06 09:34:52;;;;;;;0.20;0.10;;;;;;;6.08;100.00;100587.50;5022222;28;20459;-75
2022/01/06 09:37:19;;;;;;;0.20;0.17;;;;;;;6.20;100.00;100586.56;5024055;28;20475;-75
2022/01/06 09:39:47;;;;;;;0.40;0.20;;;;;;;6.35;100.00;100586.44;5044372;22;20846;-55
2022/01/06 09:42:15;;;;;;;0.20;0.20;;;;;;;6.00;100.00;100591.91;5045555;28;20839;-54
2022/01/06 09:44:42;;;;;;;0.20;0.10;;;;;;;6.14;100.00;100591.84;5045635;28;20897;-54
2022/01/06 09:47:09;;;;;;;0.20;0.10;;;;;;;6.15;100.00;100594.47;5045356;28;20534;-54
2022/01/06 09:49:57;;;;;;;0.20;0.10;;;;;;;6.31;100.00;100592.66;5025608;28;20448;-55
2022/01/06 09:52:24;;;;;;;0.20;0.10;;;;;;;6.48;100.00;100589.88;5026130;28;20505;-54
2022/01/06 09:54:51;;;;;;;0.20;0.17;;;;;;;6.36;99.21;100598.75;5025169;28;20514;-55
2022/01/06 09:57:18;;;;;;;0.20;0.20;;;;;;;6.46;98.16;100600.47;5025946;28;20470;-54
2022/01/06 09:59:45;;;;;;;0.20;0.10;;;;;;;6.54;98.14;100595.09;5025151;28;21178;-54
2022/01/06 10:02:19;;;;;;;0.30;0.10;;;;;;;6.55;98.97;100604.78;5025017;28;20822;-54
2022/01/06 10:04:58;;;;;;;0.20;0.20;;;;;;;6.44;100.00;100601.34;5025083;28;20457;-55
2022/01/06 10:07:25;;;;;;;0.20;0.10;;;;;;;6.63;98.91;100600.34;5025480;28;20451;-55
2022/01/06 10:09:51;;;;;;;0.20;0.17;;;;;;;6.44;100.00;100602.25;5029632;28;20451;-55
2022/01/06 10:12:18;;;;;;;0.20;0.13;;;;;;;6.48;100.00;100593.41;5028097;28;20530;-54
2022/01/06 10:14:47;;;;;;;0.20;0.10;;;;;;;6.45;100.00;100597.84;5029426;28;20451;-54
2022/01/06 10:17:29;;;;;;;0.20;0.10;;;;;;;6.23;100.00;100592.69;5026922;28;20462;-55
2022/01/06 10:19:56;;;;;;;0.20;0.10;;;;;;;6.32;100.00;100593.53;5028820;28;20545;-54
2022/01/06 10:22:22;;;;;;;0.20;0.20;;;;;;;6.36;100.00;100587.31;5028769;28;20964;-54
2022/01/06 10:24:50;;;;;;;0.20;0.20;;;;;;;6.47;100.00;100585.50;5029429;28;20462;-55
2022/01/06 10:27:20;;;;;;;0.20;0.10;;;;;;;6.77;98.68;100581.72;5028522;28;20455;-55
2022/01/06 10:29:52;;;;;;;0.20;0.10;;;;;;;6.72;98.43;100586.19;5028818;28;20853;-54
2022/01/06 10:32:21;;;;;;;0.20;0.10;;;;;;;6.52;97.05;100581.91;5028863;28;20482;-54
2022/01/06 10:34:54;;;;;;;0.20;0.20;;;;;;;6.58;96.57;100582.75;5028643;28;20899;-54
2022/01/06 10:37:26;;;;;;;0.20;0.10;;;;;;;6.55;97.19;100586.28;5018654;28;20866;-54
2022/01/06 10:39:57;;;;;;;0.20;0.20;;;;;;;6.96;96.92;100582.44;5022075;28;20491;-54
2022/01/06 10:42:25;;;;;;;0.20;0.10;;;;;;;6.77;95.64;100579.97;5024876;28;20474;-55
2022/01/06 10:45:00;;;;;;;0.20;0.10;;;;;;;6.66;96.25;100586.22;5024728;28;20541;-55
2022/01/06 10:47:35;;;;;;;0.20;0.10;;;;;;;7.04;95.31;100585.91;5020851;28;20478;-54
2022/01/06 10:50:16;;;;;;;0.20;0.10;;;;;;;7.32;91.60;100586.50;5024355;28;20451;-54
2022/01/06 10:52:46;;;;;;;0.20;0.10;;;;;;;7.39;90.60;100589.03;5023535;28;20482;-54
2022/01/06 10:55:15;;;;;;;0.20;0.20;;;;;;;7.26;90.20;100583.91;5021828;28;20465;-55
2022/01/06 10:58:04;;;;;;;0.20;0.10;;;;;;;7.34;91.14;100580.28;5023885;28;21330;-55
2022/01/06 11:00:55;;;;;;;1.90;1.50;;;;;;;7.22;89.38;100593.63;5019482;28;20559;-55
2022/01/06 11:03:24;;;;;;;0.20;0.20;;;;;;;7.25;91.02;100590.97;5018813;28;20746;-54
2022/01/06 11:05:58;;;;;;;0.20;0.20;;;;;;;7.28;90.84;100593.59;5026425;28;21033;-54
2022/01/06 11:08:28;;;;;;;0.30;0.20;;;;;;;7.27;90.80;100591.84;5028529;28;20542;-55
2022/01/06 11:13:32;;;;;;;0.30;0.10;;;;;;;7.32;91.35;100586.50;5027956;28;20960;-54
2022/01/06 11:15:59;;;;;;;0.30;0.17;;;;;;;7.27;90.43;100591.84;5027062;28;20459;-56
2022/01/06 11:18:26;;;;;;;0.23;0.17;;;;;;;7.22;89.17;100580.41;5023170;28;20464;-53
2022/01/06 11:21:13;;;;;;;0.20;0.10;;;;;;;7.52;88.78;100586.25;5027144;28;20561;-54
2022/01/06 11:23:40;;;;;;;0.20;0.10;;;;;;;7.50;89.95;100590.69;5020898;28;20455;-55
2022/01/06 11:26:12;;;;;;;0.23;0.20;;;;;;;7.57;87.01;100590.63;5027595;28;20456;-55
2022/01/06 11:28:52;;;;;;;0.20;0.20;;;;;;;7.62;87.42;100583.50;5027789;28;20895;-55
2022/01/06 11:31:25;;;;;;;0.20;0.13;;;;;;;7.57;87.15;100580.03;5028187;28;20448;-55
2022/01/06 11:33:54;;;;;;;0.20;0.10;;;;;;;7.63;85.48;100584.38;5027784;28;20503;-54
2022/01/06 11:36:41;;;;;;;0.30;0.10;;;;;;;7.71;85.35;100577.22;5028296;28;20451;-54
2022/01/06 11:39:24;;;;;;;0.20;0.10;;;;;;;7.66;85.97;100579.03;5023559;28;20965;-54